KAKO/AKO METAR and TAF weather

Enter ICAO airport designator
Station Type Date Time Source
KAKO METAR 2018/07/19 06:53 UTC NOAA

KAKO 190653Z AUTO 09005KT 10SM CLR 18/15 A3008 RMK AO2 SLP121 T01830150 403330156


Station Type Date Time Source
KAKO Decoded METAR 2018/07/19 06:53 UTC NOAA

COLORADO PLAINS REGIONAL, CO, United States (KAKO) 40-10N 103-13W 1421M
Jul 19, 2018 - 02:53 AM EDT / 2018.07.19 0653 UTC
Wind: from the E (090 degrees) at 6 MPH (5 KT):0
Visibility: 10 mile(s):0
Sky conditions: clear
Temperature: 64.9 F (18.3 C)
Dew Point: 59.0 F (15.0 C)
Relative Humidity: 81%
Pressure (altimeter): 30.08 in. Hg (1018 hPa)
ob: KAKO 190653Z AUTO 09005KT 10SM CLR 18/15 A3008 RMK AO2 SLP121 T01830150 403330156
cycle: 7

Station Type Date Time Source
KAKO TAF UTC NOAA

Error!


Example: see airport list